createdAt,value
2018-12-01T00:01:51.275Z,97.79
2018-12-01T00:06:53.713Z,98.05
2018-12-01T00:11:56.161Z,97.89
2018-12-01T00:16:58.555Z,97.96
2018-12-01T00:22:01.158Z,97.93
2018-12-01T00:27:03.673Z,97.79
2018-12-01T00:32:06.050Z,98.14
2018-12-01T00:37:08.434Z,97.88
2018-12-01T00:42:10.950Z,98.13
2018-12-01T00:47:13.350Z,98.36
2018-12-01T00:52:16.887Z,98.42
2018-12-01T00:57:19.387Z,98.33
2018-12-01T01:02:27.329Z,98.51
2018-12-01T01:07:29.795Z,98.38
2018-12-01T01:12:32.216Z,98.55
2018-12-01T01:17:35.371Z,98.62
2018-12-01T01:22:37.925Z,98.67
2018-12-01T01:27:40.429Z,98.72
2018-12-01T01:32:42.892Z,98.75
2018-12-01T01:37:45.362Z,98.75
2018-12-01T01:42:47.822Z,98.85
2018-12-01T01:47:50.303Z,98.82
2018-12-01T01:52:52.791Z,98.69
2018-12-01T01:57:55.189Z,98.76
2018-12-01T02:02:57.666Z,98.96
2018-12-01T02:08:00.142Z,98.96
2018-12-01T02:13:02.711Z,98.95
2018-12-01T02:18:05.754Z,98.80
2018-12-01T02:23:08.344Z,98.66
2018-12-01T02:28:10.774Z,98.90
2018-12-01T02:33:13.189Z,98.94
2018-12-01T02:38:15.700Z,98.76
2018-12-01T02:43:18.226Z,99.14
2018-12-01T02:48:20.722Z,98.73
2018-12-01T02:53:23.408Z,98.94
2018-12-01T02:58:25.866Z,98.97
2018-12-01T03:03:28.641Z,98.95
2018-12-01T03:08:31.059Z,98.73
2018-12-01T03:13:33.622Z,98.56
2018-12-01T03:18:36.034Z,98.79
2018-12-01T03:23:38.704Z,98.50
2018-12-01T03:28:41.084Z,98.91
2018-12-01T03:33:43.619Z,98.51
2018-12-01T03:38:46.002Z,98.47
2018-12-01T03:43:48.745Z,98.51
2018-12-01T03:48:51.816Z,98.27
2018-12-01T03:53:54.441Z,98.24
2018-12-01T03:58:57.226Z,98.06
2018-12-01T04:03:59.718Z,97.85
2018-12-01T04:09:07.727Z,98.27
2018-12-01T04:14:10.234Z,98.70
2018-12-01T04:19:12.726Z,98.71
2018-12-01T04:24:15.359Z,98.71
2018-12-01T04:29:17.846Z,98.74
2018-12-01T04:34:22.380Z,98.67
2018-12-01T04:39:24.886Z,98.77
2018-12-01T04:44:27.594Z,98.66
2018-12-01T04:49:30.002Z,98.72
2018-12-01T04:54:32.542Z,98.92
2018-12-01T04:59:35.281Z,99.08
2018-12-01T05:04:37.730Z,99.04
2018-12-01T05:09:40.154Z,98.85
2018-12-01T05:14:42.600Z,98.96
2018-12-01T05:19:45.185Z,99.26
2018-12-01T05:24:47.618Z,99.03
2018-12-01T05:29:50.006Z,98.99
2018-12-01T05:34:52.430Z,98.94
2018-12-01T05:39:54.890Z,98.99
2018-12-01T05:44:57.290Z,98.71
2018-12-01T05:49:59.753Z,98.77
2018-12-01T05:55:02.362Z,98.65
2018-12-01T06:00:13.566Z,98.57
2018-12-01T06:05:16.015Z,98.57
2018-12-01T06:10:20.374Z,98.38
2018-12-01T06:15:22.883Z,98.07
2018-12-01T06:20:26.234Z,98.29
2018-12-01T06:25:28.710Z,98.05
2018-12-01T06:30:31.094Z,98.01
2018-12-01T06:35:33.538Z,97.70
2018-12-01T06:40:35.983Z,97.71
2018-12-01T06:45:38.511Z,97.35
2018-12-01T06:50:41.078Z,97.52
2018-12-01T06:55:43.688Z,97.39
2018-12-01T07:00:46.193Z,97.01
2018-12-01T07:05:48.661Z,96.62
2018-12-01T07:10:51.270Z,96.16
2018-12-01T07:15:53.742Z,95.47
2018-12-01T07:20:56.188Z,95.79
2018-12-01T07:25:58.886Z,96.09
2018-12-01T07:31:01.324Z,96.35
2018-12-01T07:36:03.740Z,96.40
2018-12-01T07:41:06.197Z,96.33
2018-12-01T07:46:08.705Z,96.30
2018-12-01T07:51:11.264Z,96.20
2018-12-01T07:56:13.742Z,96.46
2018-12-01T08:01:16.234Z,96.50
2018-12-01T08:06:18.627Z,96.38
2018-12-01T08:11:21.111Z,96.26
2018-12-01T08:16:23.558Z,96.33
2018-12-01T08:21:26.044Z,96.09
2018-12-01T08:26:28.505Z,95.86
2018-12-01T08:31:31.211Z,95.69
2018-12-01T08:36:33.611Z,95.68
2018-12-01T08:41:36.294Z,95.37
2018-12-01T08:46:38.784Z,95.32
2018-12-01T08:51:41.247Z,94.95
2018-12-01T08:56:43.820Z,94.40
2018-12-01T09:01:46.327Z,93.99
2018-12-01T09:06:48.834Z,94.15
2018-12-01T09:11:51.237Z,94.05
2018-12-01T09:17:03.043Z,93.75
2018-12-01T09:22:05.619Z,93.66
2018-12-01T09:27:10.306Z,93.45
2018-12-01T09:32:13.029Z,93.08
2018-12-01T09:37:15.593Z,92.47
2018-12-01T09:42:18.062Z,92.20
2018-12-01T09:47:20.674Z,92.12
2018-12-01T09:52:23.215Z,91.63
2018-12-01T09:57:25.712Z,90.82
2018-12-01T10:02:28.209Z,91.16
2018-12-01T10:07:31.003Z,91.03
2018-12-01T10:12:33.523Z,90.78
2018-12-01T10:17:36.454Z,90.56
2018-12-01T10:22:40.128Z,90.46
2018-12-01T10:27:42.827Z,90.45
2018-12-01T10:32:46.851Z,90.48
2018-12-01T10:37:55.611Z,90.06
2018-12-01T10:42:58.154Z,89.01
2018-12-01T10:48:00.867Z,89.46
2018-12-01T10:53:03.796Z,89.07
2018-12-01T10:58:10.407Z,89.07
2018-12-01T11:03:18.865Z,89.31
2018-12-01T11:08:21.551Z,89.79
2018-12-01T11:13:24.110Z,89.52
2018-12-01T11:18:26.567Z,89.59
2018-12-01T11:23:29.113Z,89.59
2018-12-01T11:28:31.631Z,89.92
2018-12-01T11:33:34.157Z,89.60
2018-12-01T11:38:36.608Z,88.89
2018-12-01T11:43:39.146Z,88.20
2018-12-01T11:48:41.665Z,88.48
2018-12-01T11:53:44.270Z,88.14
2018-12-01T11:58:46.719Z,88.23
2018-12-01T12:03:49.320Z,87.91
2018-12-01T12:08:51.870Z,88.08
2018-12-01T12:13:54.430Z,87.34
2018-12-01T12:18:57.008Z,87.07
2018-12-01T12:23:59.538Z,87.14
2018-12-01T12:29:02.063Z,87.20
2018-12-01T12:34:04.744Z,86.88
2018-12-01T12:39:07.366Z,87.21
2018-12-01T12:44:09.869Z,87.19
2018-12-01T12:49:12.450Z,87.51
2018-12-01T12:54:14.939Z,87.21
2018-12-01T12:59:17.481Z,87.53
2018-12-01T13:04:20.067Z,87.63
2018-12-01T13:09:22.544Z,87.96
2018-12-01T13:14:25.126Z,87.79
2018-12-01T13:19:27.697Z,86.48
2018-12-01T13:24:30.283Z,87.04
2018-12-01T13:29:32.852Z,87.28
2018-12-01T13:34:35.413Z,87.20
2018-12-01T13:39:37.905Z,87.11
2018-12-01T13:44:47.126Z,87.15
2018-12-01T13:49:50.314Z,87.40
2018-12-01T13:54:52.722Z,87.25
2018-12-01T13:59:55.182Z,86.99
2018-12-01T14:04:57.664Z,86.98
2018-12-01T14:10:00.198Z,87.98
2018-12-01T14:15:02.790Z,86.67
2018-12-01T14:20:05.811Z,87.41
2018-12-01T14:25:09.256Z,87.64
2018-12-01T14:30:13.850Z,88.02
2018-12-01T14:35:22.291Z,87.60
2018-12-01T14:40:25.424Z,87.30
2018-12-01T14:45:31.881Z,87.78
2018-12-01T14:50:35.242Z,88.36
2018-12-01T14:55:37.883Z,88.10
2018-12-01T15:00:48.816Z,87.93
2018-12-01T15:05:51.591Z,86.79
2018-12-01T15:10:54.315Z,87.84
2018-12-01T15:15:57.090Z,87.74
2018-12-01T15:21:02.101Z,87.83
2018-12-01T15:26:06.320Z,88.34
2018-12-01T15:31:09.835Z,88.10
2018-12-01T15:36:12.442Z,88.67
2018-12-01T15:41:15.184Z,88.50
2018-12-01T15:46:18.255Z,88.37
2018-12-01T15:51:21.046Z,87.05
2018-12-01T15:56:23.779Z,87.40
2018-12-01T16:01:26.787Z,86.91
2018-12-01T16:06:29.903Z,88.02
2018-12-01T16:11:33.317Z,88.59
2018-12-01T16:16:37.167Z,87.84
2018-12-01T16:21:39.808Z,87.17
2018-12-01T16:26:43.134Z,87.93
2018-12-01T16:31:47.849Z,87.60
2018-12-01T16:36:51.256Z,88.12
2018-12-01T16:41:53.739Z,87.62
2018-12-01T16:46:56.306Z,87.75
2018-12-01T16:51:58.833Z,87.74
2018-12-01T16:57:01.326Z,86.97
2018-12-01T17:02:04.003Z,87.48
2018-12-01T17:07:06.466Z,87.14
2018-12-01T17:12:08.873Z,87.04
2018-12-01T17:17:11.605Z,87.39
2018-12-01T17:22:14.070Z,87.44
2018-12-01T17:27:16.779Z,87.26
2018-12-01T17:32:19.233Z,87.18
2018-12-01T17:37:21.766Z,86.54
2018-12-01T17:42:24.438Z,86.32
2018-12-01T17:47:26.773Z,86.55
2018-12-01T17:52:29.565Z,86.36
2018-12-01T17:57:31.994Z,85.62
2018-12-01T18:02:34.493Z,85.24
2018-12-01T18:07:37.461Z,85.53
2018-12-01T18:12:40.354Z,85.24
2018-12-01T18:17:42.734Z,85.51
2018-12-01T18:22:56.194Z,86.68
2018-12-01T18:27:59.408Z,86.89
2018-12-01T18:33:18.637Z,86.51
2018-12-01T18:38:21.156Z,86.44
2018-12-01T18:43:23.799Z,86.29
2018-12-01T18:48:26.446Z,86.51
2018-12-01T18:53:29.032Z,86.42
2018-12-01T18:58:31.489Z,86.51
2018-12-01T19:03:35.414Z,86.44
2018-12-01T19:08:37.929Z,86.17
2018-12-01T19:13:40.471Z,86.15
2018-12-01T19:18:43.734Z,86.08
2018-12-01T19:23:46.225Z,86.97
2018-12-01T19:28:48.705Z,86.96
2018-12-01T19:33:51.182Z,87.21
2018-12-01T19:38:53.802Z,87.02
2018-12-01T19:43:56.207Z,87.50
2018-12-01T19:48:58.618Z,87.12
2018-12-01T19:54:01.400Z,87.19
2018-12-01T19:59:03.894Z,87.33
2018-12-01T20:04:06.914Z,86.85
2018-12-01T20:09:09.370Z,86.20
2018-12-01T20:14:14.673Z,86.33
2018-12-01T20:19:17.096Z,87.00
2018-12-01T20:24:19.781Z,86.89
2018-12-01T20:29:22.140Z,86.50
2018-12-01T20:34:24.907Z,86.87
2018-12-01T20:39:33.668Z,86.89
2018-12-01T20:44:36.685Z,86.98
2018-12-01T20:49:39.584Z,86.93
2018-12-01T20:54:45.006Z,85.84
2018-12-01T20:59:47.592Z,85.67
2018-12-01T21:04:50.075Z,84.10
2018-12-01T21:09:52.743Z,84.28
2018-12-01T21:14:55.158Z,83.31
2018-12-01T21:19:57.600Z,82.01
2018-12-01T21:25:00.450Z,80.81
2018-12-01T21:30:03.271Z,81.15
2018-12-01T21:35:07.924Z,79.55
2018-12-01T21:40:13.314Z,78.65
2018-12-01T21:45:17.007Z,78.35
2018-12-01T21:50:20.766Z,78.30
2018-12-01T21:55:23.902Z,76.82
2018-12-01T22:00:30.966Z,77.13
2018-12-01T22:05:43.027Z,76.86
2018-12-01T22:10:49.342Z,76.73
2018-12-01T22:15:51.817Z,76.88
2018-12-01T22:20:54.317Z,76.89
2018-12-01T22:25:56.780Z,76.32
2018-12-01T22:30:59.521Z,76.36
2018-12-01T22:36:01.970Z,75.90
2018-12-01T22:41:04.773Z,76.93
2018-12-01T22:46:07.674Z,76.76
2018-12-01T22:51:10.111Z,76.60
2018-12-01T22:56:12.716Z,77.49
2018-12-01T23:01:15.349Z,76.16
2018-12-01T23:06:17.914Z,76.56
2018-12-01T23:11:20.327Z,76.34
2018-12-01T23:16:23.052Z,76.85
2018-12-01T23:21:25.988Z,77.36
2018-12-01T23:26:28.507Z,79.06
2018-12-01T23:31:31.273Z,80.97
2018-12-01T23:36:34.200Z,81.70
2018-12-01T23:41:36.672Z,81.30
2018-12-01T23:46:39.142Z,81.88
2018-12-01T23:51:41.701Z,81.83
2018-12-01T23:56:44.205Z,81.48
